sensor_id;sensor_type;location;lat;lon;timestamp;pressure;altitude;pressure_sealevel;temperature;humidity
48800;BME280;34611;47.964;7.982;2023-02-22T00:12:53;96681.78;;;10.18;53.55
48800;BME280;34611;47.964;7.982;2023-02-22T00:19:54;96674.94;;;10.17;53.69
48800;BME280;34611;47.964;7.982;2023-02-22T00:26:54;96679.28;;;10.16;53.39
48800;BME280;34611;47.964;7.982;2023-02-22T00:33:55;96672.34;;;10.17;53.55
48800;BME280;34611;47.964;7.982;2023-02-22T00:40:55;96656.06;;;10.15;53.34
48800;BME280;34611;47.964;7.982;2023-02-22T00:47:57;96661.28;;;10.15;53.24
48800;BME280;34611;47.964;7.982;2023-02-22T00:54:58;96648.28;;;10.15;53.31
48800;BME280;34611;47.964;7.982;2023-02-22T01:01:59;96641.44;;;10.13;53.25
48800;BME280;34611;47.964;7.982;2023-02-22T01:08:59;96646.91;;;10.10;52.98
48800;BME280;34611;47.964;7.982;2023-02-22T01:16:01;96633.22;;;10.08;52.88
48800;BME280;34611;47.964;7.982;2023-02-22T01:23:02;96629.66;;;10.09;52.80
48800;BME280;34611;47.964;7.982;2023-02-22T01:30:05;96623.66;;;10.09;53.00
48800;BME280;34611;47.964;7.982;2023-02-22T01:37:08;96625.28;;;10.10;53.03
48800;BME280;34611;47.964;7.982;2023-02-22T01:44:25;96618.44;;;10.09;52.89
48800;BME280;34611;47.964;7.982;2023-02-22T01:51:30;96612.00;;;10.03;52.59
48800;BME280;34611;47.964;7.982;2023-02-22T01:58:31;96600.97;;;10.11;53.26
48800;BME280;34611;47.964;7.982;2023-02-22T02:05:33;96595.88;;;10.09;53.13
48800;BME280;34611;47.964;7.982;2023-02-22T02:12:35;96591.78;;;10.07;52.95
48800;BME280;34611;47.964;7.982;2023-02-22T02:19:48;96586.72;;;10.05;52.47
48800;BME280;34611;47.964;7.982;2023-02-22T02:26:55;96578.25;;;10.03;52.58
48800;BME280;34611;47.964;7.982;2023-02-22T02:34:02;96575.06;;;10.00;52.29
48800;BME280;34611;47.964;7.982;2023-02-22T02:41:17;96571.13;;;10.05;52.81
48800;BME280;34611;47.964;7.982;2023-02-22T02:48:22;96576.31;;;10.05;52.63
48800;BME280;34611;47.964;7.982;2023-02-22T02:55:24;96579.31;;;10.01;52.34
48800;BME280;34611;47.964;7.982;2023-02-22T03:09:40;96565.53;;;10.00;52.24
48800;BME280;34611;47.964;7.982;2023-02-22T03:24:05;96566.06;;;9.94;52.13
48800;BME280;34611;47.964;7.982;2023-02-22T03:31:11;96566.19;;;9.92;51.96
48800;BME280;34611;47.964;7.982;2023-02-22T03:38:15;96565.63;;;9.89;52.17
48800;BME280;34611;47.964;7.982;2023-02-22T03:45:17;96560.28;;;9.90;52.15
48800;BME280;34611;47.964;7.982;2023-02-22T03:52:19;96558.63;;;9.89;51.86
48800;BME280;34611;47.964;7.982;2023-02-22T03:59:22;96558.50;;;9.91;51.86
48800;BME280;34611;47.964;7.982;2023-02-22T04:06:26;96556.44;;;9.85;51.67
48800;BME280;34611;47.964;7.982;2023-02-22T04:13:27;96558.91;;;9.86;51.63
48800;BME280;34611;47.964;7.982;2023-02-22T04:20:28;96553.84;;;9.85;51.58
48800;BME280;34611;47.964;7.982;2023-02-22T04:27:32;96548.94;;;9.82;51.69
48800;BME280;34611;47.964;7.982;2023-02-22T04:34:34;96538.56;;;9.82;51.92
48800;BME280;34611;47.964;7.982;2023-02-22T04:41:34;96540.06;;;9.84;51.82
48800;BME280;34611;47.964;7.982;2023-02-22T04:48:35;96531.56;;;9.82;51.85
48800;BME280;34611;47.964;7.982;2023-02-22T04:55:35;96524.06;;;9.79;51.58
48800;BME280;34611;47.964;7.982;2023-02-22T05:02:39;96523.22;;;9.79;51.69
48800;BME280;34611;47.964;7.982;2023-02-22T05:09:39;96518.19;;;9.77;51.52
48800;BME280;34611;47.964;7.982;2023-02-22T05:16:39;96512.84;;;9.79;51.66
48800;BME280;34611;47.964;7.982;2023-02-22T05:23:40;96505.91;;;9.79;51.70
48800;BME280;34611;47.964;7.982;2023-02-22T05:30:41;96505.44;;;9.74;51.36
48800;BME280;34611;47.964;7.982;2023-02-22T05:37:41;96498.88;;;9.70;51.59
48800;BME280;34611;47.964;7.982;2023-02-22T05:44:41;96496.16;;;9.71;51.39
48800;BME280;34611;47.964;7.982;2023-02-22T05:51:41;96498.47;;;9.65;51.16
48800;BME280;34611;47.964;7.982;2023-02-22T05:58:42;96498.84;;;9.60;51.22
48800;BME280;34611;47.964;7.982;2023-02-22T06:05:42;96491.69;;;9.83;52.20
48800;BME280;34611;47.964;7.982;2023-02-22T06:12:45;96500.81;;;9.87;52.77
48800;BME280;34611;47.964;7.982;2023-02-22T06:19:45;96498.91;;;9.89;53.11
48800;BME280;34611;47.964;7.982;2023-02-22T06:26:50;96503.06;;;9.92;53.39
48800;BME280;34611;47.964;7.982;2023-02-22T06:33:53;96500.31;;;9.93;53.76
48800;BME280;34611;47.964;7.982;2023-02-22T06:40:53;96513.16;;;9.95;53.63
48800;BME280;34611;47.964;7.982;2023-02-22T06:47:56;96513.16;;;9.95;54.22
48800;BME280;34611;47.964;7.982;2023-02-22T06:54:56;96524.22;;;9.97;54.08
48800;BME280;34611;47.964;7.982;2023-02-22T07:01:57;96524.09;;;9.99;54.12
48800;BME280;34611;47.964;7.982;2023-02-22T07:08:58;96521.63;;;9.97;54.36
48800;BME280;34611;47.964;7.982;2023-02-22T07:15:58;96531.78;;;10.00;54.69
48800;BME280;34611;47.964;7.982;2023-02-22T07:22:59;96530.00;;;10.01;54.46
48800;BME280;34611;47.964;7.982;2023-02-22T07:29:59;96535.06;;;10.02;54.57
48800;BME280;34611;47.964;7.982;2023-02-22T07:37:00;96533.41;;;10.01;54.75
48800;BME280;34611;47.964;7.982;2023-02-22T07:44:00;96533.28;;;10.03;54.80
48800;BME280;34611;47.964;7.982;2023-02-22T07:51:00;96529.88;;;10.02;54.76
48800;BME280;34611;47.964;7.982;2023-02-22T07:58:01;96535.06;;;10.02;54.84
48800;BME280;34611;47.964;7.982;2023-02-22T08:05:04;96535.88;;;10.03;55.05
48800;BME280;34611;47.964;7.982;2023-02-22T08:12:04;96536.69;;;10.03;55.11
48800;BME280;34611;47.964;7.982;2023-02-22T08:19:05;96521.09;;;10.03;55.08
48800;BME280;34611;47.964;7.982;2023-02-22T08:26:06;96521.91;;;10.04;55.10
48800;BME280;34611;47.964;7.982;2023-02-22T08:33:06;96517.56;;;10.04;55.13
48800;BME280;34611;47.964;7.982;2023-02-22T08:40:07;96509.78;;;10.04;55.14
48800;BME280;34611;47.964;7.982;2023-02-22T08:47:07;96511.41;;;10.05;55.17
48800;BME280;34611;47.964;7.982;2023-02-22T08:54:08;96512.38;;;10.04;55.22
48800;BME280;34611;47.964;7.982;2023-02-22T09:01:08;96512.38;;;10.04;55.23
48800;BME280;34611;47.964;7.982;2023-02-22T09:08:08;96518.38;;;10.05;55.29
48800;BME280;34611;47.964;7.982;2023-02-22T09:15:09;96515.66;;;10.06;55.43
48800;BME280;34611;47.964;7.982;2023-02-22T09:22:09;96509.63;;;10.06;55.41
48800;BME280;34611;47.964;7.982;2023-02-22T09:29:10;96512.22;;;10.06;55.33
48800;BME280;34611;47.964;7.982;2023-02-22T09:36:10;96520.00;;;10.06;55.31
48800;BME280;34611;47.964;7.982;2023-02-22T09:50:19;96509.63;;;10.06;55.48
48800;BME280;34611;47.964;7.982;2023-02-22T09:57:26;96507.88;;;10.06;55.39
48800;BME280;34611;47.964;7.982;2023-02-22T10:11:49;96505.28;;;10.06;55.41
48800;BME280;34611;47.964;7.982;2023-02-22T10:25:56;96493.91;;;10.07;55.59
48800;BME280;34611;47.964;7.982;2023-02-22T10:40:11;96483.53;;;10.07;55.73
48800;BME280;34611;47.964;7.982;2023-02-22T10:47:12;96480.13;;;10.07;55.76
48800;BME280;34611;47.964;7.982;2023-02-22T10:54:18;96474.09;;;10.06;55.87
48800;BME280;34611;47.964;7.982;2023-02-22T11:01:24;96472.31;;;10.07;55.70
48800;BME280;34611;47.964;7.982;2023-02-22T11:08:27;96466.16;;;10.08;55.74
48800;BME280;34611;47.964;7.982;2023-02-22T11:15:28;96454.16;;;10.07;55.68
48800;BME280;34611;47.964;7.982;2023-02-22T11:22:31;96456.75;;;10.07;55.72
48800;BME280;34611;47.964;7.982;2023-02-22T11:29:36;96454.03;;;10.08;55.79
48800;BME280;34611;47.964;7.982;2023-02-22T11:36:38;96443.63;;;10.08;55.84
48800;BME280;34611;47.964;7.982;2023-02-22T11:43:40;96434.19;;;10.07;55.97
48800;BME280;34611;47.964;7.982;2023-02-22T11:51:15;96430.66;;;10.08;56.06
48800;BME280;34611;47.964;7.982;2023-02-22T12:12:39;96413.28;;;10.09;55.97
48800;BME280;34611;47.964;7.982;2023-02-22T12:26:43;96415.06;;;10.08;56.14
48800;BME280;34611;47.964;7.982;2023-02-22T12:41:09;96424.59;;;10.08;56.08
48800;BME280;34611;47.964;7.982;2023-02-22T12:55:19;96413.28;;;10.09;56.03
48800;BME280;34611;47.964;7.982;2023-02-22T13:16:40;96421.06;;;10.09;56.05
48800;BME280;34611;47.964;7.982;2023-02-22T13:38:20;96420.25;;;10.08;56.30
48800;BME280;34611;47.964;7.982;2023-02-22T13:52:42;96427.06;;;10.09;56.24
48800;BME280;34611;47.964;7.982;2023-02-22T13:59:43;96424.34;;;10.11;56.34
48800;BME280;34611;47.964;7.982;2023-02-22T14:06:46;96427.88;;;10.10;56.33
48800;BME280;34611;47.964;7.982;2023-02-22T14:35:35;96419.16;;;10.11;56.23
48800;BME280;34611;47.964;7.982;2023-02-22T14:42:38;96415.06;;;10.08;56.22
48800;BME280;34611;47.964;7.982;2023-02-22T14:49:41;96424.47;;;10.09;56.35
48800;BME280;34611;47.964;7.982;2023-02-22T15:04:18;96427.06;;;10.09;56.39
48800;BME280;34611;47.964;7.982;2023-02-22T15:11:22;96432.28;;;10.09;56.60
48800;BME280;34611;47.964;7.982;2023-02-22T15:18:25;96428.72;;;10.10;56.60
48800;BME280;34611;47.964;7.982;2023-02-22T15:25:28;96421.06;;;10.09;56.46
48800;BME280;34611;47.964;7.982;2023-02-22T15:39:31;96437.47;;;10.09;56.36
48800;BME280;34611;47.964;7.982;2023-02-22T15:46:33;96430.50;;;10.10;56.39
48800;BME280;34611;47.964;7.982;2023-02-22T15:53:44;96439.94;;;10.11;56.72
48800;BME280;34611;47.964;7.982;2023-02-22T16:00:57;96442.66;;;10.09;56.66
48800;BME280;34611;47.964;7.982;2023-02-22T16:07:58;96447.84;;;10.09;56.47
48800;BME280;34611;47.964;7.982;2023-02-22T16:14:59;96450.31;;;10.11;56.68
48800;BME280;34611;47.964;7.982;2023-02-22T16:22:00;96455.66;;;10.09;56.71
48800;BME280;34611;47.964;7.982;2023-02-22T16:29:03;96461.53;;;10.11;56.57
48800;BME280;34611;47.964;7.982;2023-02-22T16:36:04;96466.84;;;10.10;56.56
48800;BME280;34611;47.964;7.982;2023-02-22T16:43:06;96466.72;;;10.11;56.65
48800;BME280;34611;47.964;7.982;2023-02-22T16:50:07;96464.25;;;10.10;56.65
48800;BME280;34611;47.964;7.982;2023-02-22T16:57:09;96463.44;;;10.09;56.58
48800;BME280;34611;47.964;7.982;2023-02-22T17:04:15;96467.28;;;10.15;56.58
48800;BME280;34611;47.964;7.982;2023-02-22T17:11:16;96476.16;;;10.12;57.01
48800;BME280;34611;47.964;7.982;2023-02-22T17:18:17;96468.38;;;10.12;56.90
48800;BME280;34611;47.964;7.982;2023-02-22T17:25:22;96482.31;;;10.11;56.83
48800;BME280;34611;47.964;7.982;2023-02-22T17:32:24;96490.09;;;10.11;56.90
48800;BME280;34611;47.964;7.982;2023-02-22T17:39:24;96501.28;;;10.12;56.84
48800;BME280;34611;47.964;7.982;2023-02-22T17:46:26;96496.38;;;10.19;57.08
48800;BME280;34611;47.964;7.982;2023-02-22T17:53:26;96503.78;;;10.13;57.11
48800;BME280;34611;47.964;7.982;2023-02-22T18:00:27;96500.47;;;10.11;57.06
48800;BME280;34611;47.964;7.982;2023-02-22T18:07:35;96499.53;;;10.12;57.08
48800;BME280;34611;47.964;7.982;2023-02-22T18:14:35;96501.28;;;10.12;57.13
48800;BME280;34611;47.964;7.982;2023-02-22T18:21:36;96503.06;;;10.11;57.13
48800;BME280;34611;47.964;7.982;2023-02-22T18:28:37;96505.69;;;10.11;57.21
48800;BME280;34611;47.964;7.982;2023-02-22T18:35:38;96494.34;;;10.12;56.90
48800;BME280;34611;47.964;7.982;2023-02-22T18:42:39;96491.75;;;10.12;57.06
48800;BME280;34611;47.964;7.982;2023-02-22T18:49:39;96489.16;;;10.12;57.23
48800;BME280;34611;47.964;7.982;2023-02-22T18:56:41;96493.50;;;10.12;57.14
48800;BME280;34611;47.964;7.982;2023-02-22T19:03:41;96491.75;;;10.12;57.26
48800;BME280;34611;47.964;7.982;2023-02-22T19:10:41;96485.72;;;10.12;57.27
48800;BME280;34611;47.964;7.982;2023-02-22T19:17:42;96478.75;;;10.12;57.25
48800;BME280;34611;47.964;7.982;2023-02-22T19:24:44;96483.13;;;10.12;57.21
48800;BME280;34611;47.964;7.982;2023-02-22T19:31:44;96490.53;;;10.17;57.57
48800;BME280;34611;47.964;7.982;2023-02-22T19:38:50;96484.66;;;10.15;57.64
48800;BME280;34611;47.964;7.982;2023-02-22T19:45:50;96484.66;;;10.15;57.65
48800;BME280;34611;47.964;7.982;2023-02-22T19:52:50;96489.84;;;10.15;57.65
48800;BME280;34611;47.964;7.982;2023-02-22T19:59:52;96489.69;;;10.16;57.83
48800;BME280;34611;47.964;7.982;2023-02-22T20:06:53;96493.13;;;10.17;57.71
48800;BME280;34611;47.964;7.982;2023-02-22T20:13:54;96487.09;;;10.16;57.72
48800;BME280;34611;47.964;7.982;2023-02-22T20:20:54;96499.25;;;10.16;57.74
48800;BME280;34611;47.964;7.982;2023-02-22T20:27:55;96500.06;;;10.16;57.84
48800;BME280;34611;47.964;7.982;2023-02-22T20:34:55;96495.72;;;10.17;57.95
48800;BME280;34611;47.964;7.982;2023-02-22T20:41:56;96500.91;;;10.17;58.00
48800;BME280;34611;47.964;7.982;2023-02-22T20:48:59;96493.94;;;10.17;57.95
48800;BME280;34611;47.964;7.982;2023-02-22T20:56:00;96492.16;;;10.18;57.90
48800;BME280;34611;47.964;7.982;2023-02-22T21:03:01;96490.53;;;10.17;58.21
48800;BME280;34611;47.964;7.982;2023-02-22T21:10:01;96496.53;;;10.17;58.17
48800;BME280;34611;47.964;7.982;2023-02-22T21:17:01;96488.75;;;10.17;58.08
48800;BME280;34611;47.964;7.982;2023-02-22T21:24:03;96497.34;;;10.18;58.08
48800;BME280;34611;47.964;7.982;2023-02-22T21:31:04;96496.38;;;10.19;58.16
48800;BME280;34611;47.964;7.982;2023-02-22T21:38:05;96496.38;;;10.19;58.22
48800;BME280;34611;47.964;7.982;2023-02-22T21:45:05;96493.78;;;10.19;58.42
48800;BME280;34611;47.964;7.982;2023-02-22T21:52:07;96487.78;;;10.18;58.27
48800;BME280;34611;47.964;7.982;2023-02-22T21:59:12;96485.06;;;10.20;58.46
48800;BME280;34611;47.964;7.982;2023-02-22T22:06:13;96479.03;;;10.19;58.49
48800;BME280;34611;47.964;7.982;2023-02-22T22:13:14;96482.44;;;10.20;58.46
48800;BME280;34611;47.964;7.982;2023-02-22T22:20:14;96476.44;;;10.19;58.43
48800;BME280;34611;47.964;7.982;2023-02-22T22:27:15;96479.03;;;10.19;58.55
48800;BME280;34611;47.964;7.982;2023-02-22T22:34:15;96479.84;;;10.20;58.37
48800;BME280;34611;47.964;7.982;2023-02-22T22:41:16;96473.69;;;10.21;58.47
48800;BME280;34611;47.964;7.982;2023-02-22T22:48:17;96473.69;;;10.21;58.55
48800;BME280;34611;47.964;7.982;2023-02-22T22:55:18;96467.69;;;10.20;58.64
48800;BME280;34611;47.964;7.982;2023-02-22T23:02:18;96464.28;;;10.20;58.74
48800;BME280;34611;47.964;7.982;2023-02-22T23:09:23;96459.88;;;10.20;58.62
48800;BME280;34611;47.964;7.982;2023-02-22T23:16:24;96465.09;;;10.20;58.69
48800;BME280;34611;47.964;7.982;2023-02-22T23:23:24;96459.06;;;10.20;58.66
48800;BME280;34611;47.964;7.982;2023-02-22T23:30:26;96465.09;;;10.20;58.66
48800;BME280;34611;47.964;7.982;2023-02-22T23:37:27;96467.69;;;10.20;58.65
48800;BME280;34611;47.964;7.982;2023-02-22T23:44:27;96452.09;;;10.20;58.76
48800;BME280;34611;47.964;7.982;2023-02-22T23:51:29;96460.69;;;10.21;58.90
48800;BME280;34611;47.964;7.982;2023-02-22T23:58:38;96465.91;;;10.21;58.82
